Time;durP1;ratioP1;P1;durP2;ratioP2;P2;SDS_P1;SDS_P2;PMS_P1;PMS_P2;Temp;Humidity;BMP_temperature;BMP_pressure;BME280_temperature;BME280_humidity;BME280_pressure;Samples;Min_cycle;Max_cycle;Signal;HPM_P1;HPM_P2
2023/06/06 00:01:23;;;;;;;6.03;5.83;;;18.10;99.90;;;;;;5046208;28;20450;-94
2023/06/06 00:03:51;;;;;;;6.97;6.43;;;18.10;99.90;;;;;;5042933;28;20192;-94
2023/06/06 00:06:21;;;;;;;7.00;6.30;;;18.00;99.90;;;;;;5035026;28;20485;-94
2023/06/06 00:08:52;;;;;;;6.77;6.37;;;17.90;99.90;;;;;;5017350;28;21172;-94
2023/06/06 00:11:21;;;;;;;6.97;6.57;;;17.90;99.90;;;;;;5014911;28;20450;-94
2023/06/06 00:13:50;;;;;;;6.47;6.23;;;17.90;99.90;;;;;;5032002;28;20459;-93
2023/06/06 00:16:17;;;;;;;6.70;6.30;;;17.90;99.90;;;;;;5016904;28;20725;-93
2023/06/06 00:18:46;;;;;;;6.83;6.33;;;17.70;99.90;;;;;;5022638;28;20658;-94
2023/06/06 00:21:17;;;;;;;7.50;6.90;;;17.70;99.90;;;;;;5028995;28;20518;-94
2023/06/06 00:23:48;;;;;;;6.30;5.90;;;17.70;99.90;;;;;;5030628;28;20512;-93
2023/06/06 00:26:14;;;;;;;7.23;6.73;;;17.60;99.90;;;;;;5022960;28;20451;-94
2023/06/06 00:28:39;;;;;;;7.30;6.90;;;17.60;99.90;;;;;;5030583;28;20494;-93
2023/06/06 00:31:05;;;;;;;7.43;6.60;;;17.60;99.90;;;;;;5017213;28;20443;-96
2023/06/06 00:33:31;;;;;;;7.87;7.37;;;17.50;99.90;;;;;;5026749;28;20204;-94
2023/06/06 00:36:04;;;;;;;8.80;8.20;;;17.60;99.90;;;;;;5027260;28;20222;-92
2023/06/06 00:38:30;;;;;;;7.30;6.60;;;17.40;99.90;;;;;;5020930;28;20201;-94
2023/06/06 00:40:57;;;;;;;8.03;7.30;;;17.30;99.90;;;;;;5011474;28;20498;-92
2023/06/06 00:43:23;;;;;;;9.00;8.10;;;17.30;99.90;;;;;;5013957;28;20428;-95
2023/06/06 00:45:48;;;;;;;8.90;7.63;;;17.30;99.90;;;;;;5025309;28;20439;-93
2023/06/06 00:48:21;;;;;;;7.43;6.97;;;17.20;99.90;;;;;;5034957;28;20188;-91
2023/06/06 00:50:47;;;;;;;6.87;6.47;;;17.10;99.90;;;;;;5018768;28;20183;-93
2023/06/06 00:53:14;;;;;;;7.40;6.90;;;17.10;99.90;;;;;;5036325;28;20524;-92
2023/06/06 00:55:41;;;;;;;8.20;7.07;;;17.20;99.90;;;;;;5048554;28;20441;-93
2023/06/06 00:58:11;;;;;;;7.10;6.70;;;17.10;99.90;;;;;;5050852;28;20445;-93
2023/06/06 01:00:38;;;;;;;8.03;6.97;;;17.10;99.90;;;;;;5043212;28;20449;-93
2023/06/06 01:03:09;;;;;;;7.07;6.67;;;17.10;99.90;;;;;;5045468;28;21409;-94
2023/06/06 01:05:38;;;;;;;8.23;7.60;;;17.10;99.90;;;;;;5038027;28;20874;-94
2023/06/06 01:08:04;;;;;;;7.67;7.23;;;17.10;99.90;;;;;;5046139;28;20476;-93
2023/06/06 01:10:30;;;;;;;8.30;7.60;;;17.00;99.90;;;;;;5037627;28;20448;-93
2023/06/06 01:13:26;;;;;;;13.33;9.57;;;17.00;99.90;;;;;;5044613;28;20461;-94
2023/06/06 01:16:19;;;;;;;7.67;7.27;;;17.00;99.90;;;;;;5029934;28;20433;-93
2023/06/06 01:18:48;;;;;;;7.07;6.57;;;17.00;99.90;;;;;;5033584;28;20477;-93
2023/06/06 01:21:17;;;;;;;7.27;6.33;;;16.90;99.90;;;;;;5045284;28;20507;-93
2023/06/06 01:23:43;;;;;;;8.20;7.60;;;16.90;99.90;;;;;;5039494;28;20510;-94
2023/06/06 01:26:12;;;;;;;7.20;6.80;;;16.90;99.90;;;;;;5031768;28;20444;-94
2023/06/06 01:28:40;;;;;;;7.60;7.17;;;16.90;99.90;;;;;;5046257;28;20952;-94
2023/06/06 01:31:13;;;;;;;8.83;7.90;;;16.80;99.90;;;;;;5050654;28;20433;-94
2023/06/06 01:33:54;;;;;;;8.00;7.27;;;16.70;99.90;;;;;;5057460;28;20460;-94
2023/06/06 01:36:30;;;;;;;7.80;7.10;;;16.60;99.90;;;;;;5035549;28;20780;-93
2023/06/06 01:39:01;;;;;;;8.20;7.50;;;16.60;99.90;;;;;;5046313;28;20434;-94
2023/06/06 01:41:30;;;;;;;7.90;7.40;;;16.60;99.90;;;;;;5038148;28;20429;-93
2023/06/06 01:43:57;;;;;;;9.20;8.00;;;16.50;99.90;;;;;;5056449;28;20441;-94
2023/06/06 01:46:25;;;;;;;7.13;6.60;;;16.50;99.90;;;;;;5043309;28;20438;-93
2023/06/06 01:48:52;;;;;;;8.43;7.60;;;16.40;99.90;;;;;;5050554;28;20951;-94
2023/06/06 01:51:18;;;;;;;8.47;7.70;;;16.40;99.90;;;;;;5065035;28;20499;-93
2023/06/06 01:53:46;;;;;;;7.57;7.17;;;16.40;99.90;;;;;;5038998;28;20452;-93
2023/06/06 01:56:14;;;;;;;8.23;7.43;;;16.30;99.90;;;;;;5061657;28;20473;-93
2023/06/06 01:58:41;;;;;;;8.70;8.20;;;16.50;99.90;;;;;;5070488;28;20437;-92
2023/06/06 02:01:09;;;;;;;11.30;8.40;;;16.40;99.90;;;;;;5066075;28;20436;-92
2023/06/06 02:03:36;;;;;;;9.90;8.40;;;16.20;99.90;;;;;;5072676;28;20432;-94
2023/06/06 02:06:05;;;;;;;8.80;8.10;;;16.20;99.90;;;;;;5067433;28;20437;-94
2023/06/06 02:08:31;;;;;;;9.37;8.23;;;16.20;99.90;;;;;;5067700;28;20429;-93
2023/06/06 02:10:59;;;;;;;7.40;6.70;;;16.20;99.90;;;;;;5052948;28;20461;-94
2023/06/06 02:13:26;;;;;;;8.30;7.67;;;16.10;99.90;;;;;;5058105;28;20271;-94
2023/06/06 02:15:52;;;;;;;8.77;8.00;;;16.00;99.90;;;;;;5057379;28;20421;-92
2023/06/06 02:18:20;;;;;;;9.73;7.30;;;15.90;99.90;;;;;;5055433;28;20459;-93
2023/06/06 02:20:46;;;;;;;8.53;7.83;;;15.90;99.90;;;;;;5049378;28;20440;-94
2023/06/06 02:23:18;;;;;;;8.40;7.70;;;15.90;99.90;;;;;;5054025;28;20433;-93
2023/06/06 02:25:48;;;;;;;8.63;7.83;;;15.80;99.90;;;;;;5041140;28;20476;-94
2023/06/06 02:28:15;;;;;;;9.70;8.73;;;15.80;99.90;;;;;;5039966;28;20787;-92
2023/06/06 02:30:41;;;;;;;8.93;8.13;;;15.90;99.90;;;;;;5048102;28;20417;-95
2023/06/06 02:33:07;;;;;;;8.27;7.70;;;15.80;99.90;;;;;;5053955;28;20459;-94
2023/06/06 02:35:37;;;;;;;7.50;7.00;;;15.70;99.90;;;;;;5052177;28;20490;-93
2023/06/06 02:38:02;;;;;;;11.13;8.20;;;15.70;99.90;;;;;;5046913;28;20486;-94
2023/06/06 02:40:28;;;;;;;8.40;7.77;;;15.70;99.90;;;;;;5059717;28;20505;-91
2023/06/06 02:42:54;;;;;;;8.30;7.70;;;15.70;99.90;;;;;;5055314;28;20608;-93
2023/06/06 02:45:29;;;;;;;8.73;7.90;;;15.70;99.90;;;;;;5062904;28;20588;-95
2023/06/06 02:47:55;;;;;;;8.80;8.00;;;15.80;99.90;;;;;;5062908;28;20972;-93
2023/06/06 02:50:20;;;;;;;9.57;8.60;;;15.60;99.90;;;;;;5067631;28;20436;-91
2023/06/06 02:52:49;;;;;;;10.17;9.13;;;15.60;99.90;;;;;;5061170;28;20586;-91
2023/06/06 02:55:15;;;;;;;9.60;8.73;;;15.60;99.90;;;;;;5058646;28;20226;-93
2023/06/06 02:57:40;;;;;;;9.67;8.87;;;15.60;99.90;;;;;;5069175;28;20832;-93
2023/06/06 03:00:09;;;;;;;8.87;8.27;;;15.40;99.90;;;;;;5058699;28;20206;-93
2023/06/06 03:02:38;;;;;;;8.87;7.93;;;15.40;99.90;;;;;;5062080;28;20200;-92
2023/06/06 03:05:05;;;;;;;9.13;8.20;;;15.40;99.90;;;;;;5072579;28;20446;-92
2023/06/06 03:07:32;;;;;;;9.50;8.70;;;15.40;99.90;;;;;;5068094;28;20440;-93
2023/06/06 03:09:57;;;;;;;9.00;8.20;;;15.50;99.90;;;;;;5065568;28;20441;-94
2023/06/06 03:12:33;;;;;;;9.40;8.43;;;15.40;99.90;;;;;;5054568;28;20479;-94
2023/06/06 03:14:58;;;;;;;9.10;8.40;;;15.50;99.90;;;;;;5046325;28;20332;-94
2023/06/06 03:17:32;;;;;;;8.93;8.27;;;15.40;99.90;;;;;;5056493;28;20461;-93
2023/06/06 03:19:57;;;;;;;9.73;8.00;;;15.50;99.90;;;;;;5048623;28;20256;-94
2023/06/06 03:22:23;;;;;;;9.63;8.50;;;15.40;99.90;;;;;;5050921;28;20449;-93
2023/06/06 03:24:49;;;;;;;8.67;8.07;;;15.30;99.90;;;;;;5055838;28;20190;-93
2023/06/06 03:27:16;;;;;;;10.33;9.23;;;15.20;99.90;;;;;;5051258;28;20257;-93
2023/06/06 03:29:44;;;;;;;11.57;9.00;;;15.20;99.90;;;;;;5045368;28;20479;-93
2023/06/06 03:32:13;;;;;;;10.83;9.50;;;15.30;99.90;;;;;;5036688;28;21057;-93
2023/06/06 03:34:41;;;;;;;12.80;9.83;;;15.30;99.90;;;;;;5050432;28;20437;-92
2023/06/06 03:37:07;;;;;;;10.00;9.20;;;15.30;99.90;;;;;;5045428;28;20450;-92
2023/06/06 03:39:33;;;;;;;12.50;9.63;;;15.20;99.90;;;;;;5055098;28;20433;-90
2023/06/06 03:42:01;;;;;;;11.43;9.43;;;15.10;99.90;;;;;;5060249;28;20907;-93
2023/06/06 03:44:27;;;;;;;11.03;9.77;;;15.20;99.90;;;;;;5054365;28;20435;-93
2023/06/06 03:46:53;;;;;;;9.10;8.20;;;15.20;99.90;;;;;;5049936;28;20832;-92
2023/06/06 03:49:18;;;;;;;8.67;7.97;;;15.10;99.90;;;;;;5058952;28;20210;-95
2023/06/06 03:51:47;;;;;;;10.77;9.70;;;15.10;99.90;;;;;;5067581;28;20480;-92
2023/06/06 03:54:12;;;;;;;10.53;9.50;;;15.10;99.90;;;;;;5062843;28;20179;-94
2023/06/06 03:56:40;;;;;;;9.47;8.20;;;15.20;99.90;;;;;;5050579;28;20571;-95
2023/06/06 03:59:11;;;;;;;9.50;8.63;;;15.20;99.90;;;;;;5053535;28;20190;-92
2023/06/06 04:01:37;;;;;;;10.73;9.23;;;15.20;99.90;;;;;;5051925;28;20442;-94
2023/06/06 04:04:03;;;;;;;10.13;9.23;;;15.20;99.90;;;;;;5053646;28;20436;-93
2023/06/06 04:06:31;;;;;;;11.17;10.07;;;15.10;99.90;;;;;;5051988;28;20213;-94
2023/06/06 04:09:00;;;;;;;9.80;8.97;;;15.20;99.90;;;;;;5047780;28;20470;-93
2023/06/06 04:11:28;;;;;;;10.33;9.30;;;15.10;99.90;;;;;;5051484;28;20409;-92
2023/06/06 04:13:54;;;;;;;10.40;9.50;;;15.10;99.90;;;;;;5049258;28;20456;-93
2023/06/06 04:16:20;;;;;;;10.30;9.17;;;15.00;99.90;;;;;;5048423;28;20460;-93
2023/06/06 04:18:52;;;;;;;10.90;9.87;;;15.00;99.90;;;;;;5056440;28;20214;-89
2023/06/06 04:21:18;;;;;;;10.47;8.90;;;15.00;99.90;;;;;;5047465;28;20591;-93
2023/06/06 04:23:45;;;;;;;10.57;9.70;;;15.00;99.90;;;;;;5042067;28;21062;-93
2023/06/06 04:26:23;;;;;;;9.83;8.93;;;15.00;99.90;;;;;;5048157;28;20437;-93
2023/06/06 04:28:58;;;;;;;10.07;9.17;;;15.10;99.90;;;;;;5036986;28;20599;-93
2023/06/06 04:31:30;;;;;;;10.63;9.60;;;15.10;99.90;;;;;;5045016;28;20469;-94
2023/06/06 04:33:56;;;;;;;10.73;9.73;;;15.20;99.90;;;;;;5054123;28;20465;-93
2023/06/06 04:36:33;;;;;;;11.67;9.97;;;15.30;99.90;;;;;;5046784;28;20441;-93
2023/06/06 04:39:03;;;;;;;10.67;9.67;;;15.50;99.90;;;;;;5050736;28;20477;-93
2023/06/06 04:41:33;;;;;;;10.07;9.07;;;15.60;99.90;;;;;;5056405;28;20425;-93
2023/06/06 04:44:03;;;;;;;8.83;8.20;;;15.60;99.90;;;;;;5048301;28;20544;-93
2023/06/06 04:46:34;;;;;;;11.27;10.17;;;15.90;99.90;;;;;;5049662;28;20524;-94
2023/06/06 04:49:06;;;;;;;13.97;9.53;;;16.10;99.90;;;;;;5056534;28;20444;-93
2023/06/06 04:51:33;;;;;;;9.70;9.00;;;16.00;99.90;;;;;;5058561;28;20508;-90
2023/06/06 04:54:01;;;;;;;10.83;9.67;;;16.30;99.90;;;;;;5049989;28;21051;-94
2023/06/06 04:56:30;;;;;;;13.20;9.33;;;16.00;99.90;;;;;;5053753;28;20439;-92
2023/06/06 04:58:57;;;;;;;12.90;8.70;;;16.30;99.90;;;;;;5052833;28;20452;-95
2023/06/06 05:01:33;;;;;;;12.97;10.47;;;16.60;99.90;;;;;;5055451;28;20423;-94
2023/06/06 05:04:10;;;;;;;10.63;9.83;;;16.20;99.90;;;;;;5050603;28;20467;-93
2023/06/06 05:06:36;;;;;;;9.90;9.07;;;16.30;99.90;;;;;;5047505;28;20459;-91
2023/06/06 05:09:38;;;;;;;10.40;9.27;;;16.50;99.90;;;;;;5053158;28;20414;-93
2023/06/06 05:12:14;;;;;;;11.47;10.30;;;16.60;99.90;;;;;;5072311;28;20460;-92
2023/06/06 05:14:45;;;;;;;10.73;9.70;;;16.80;99.90;;;;;;5065761;28;20429;-92
2023/06/06 05:20:10;;;;;;;13.87;9.57;;;17.20;99.90;;;;;;5066172;28;20453;-92
2023/06/06 05:22:41;;;;;;;9.97;8.97;;;17.40;99.90;;;;;;5054059;28;20433;-95
2023/06/06 05:25:27;;;;;;;10.70;9.60;;;17.70;99.90;;;;;;5055334;28;20443;-93
2023/06/06 05:27:54;;;;;;;13.47;9.80;;;18.20;99.90;;;;;;5054429;28;20445;-94
2023/06/06 05:30:31;;;;;;;13.70;10.20;;;18.20;99.90;;;;;;5060249;28;20429;-94
2023/06/06 05:33:15;;;;;;;11.60;10.10;;;18.20;99.90;;;;;;5058680;28;20472;-93
2023/06/06 05:35:46;;;;;;;11.00;9.90;;;18.50;99.90;;;;;;5052856;28;20417;-94
2023/06/06 05:38:12;;;;;;;10.23;9.53;;;18.40;99.90;;;;;;5060139;28;20433;-91
2023/06/06 05:40:54;;;;;;;10.77;9.20;;;18.60;99.90;;;;;;5055066;28;21001;-94
2023/06/06 05:43:30;;;;;;;13.17;10.10;;;18.30;99.90;;;;;;5057294;28;20441;-93
2023/06/06 05:46:12;;;;;;;11.67;10.47;;;18.50;99.90;;;;;;5047987;28;20445;-91
2023/06/06 05:48:38;;;;;;;10.60;9.70;;;18.30;99.90;;;;;;5080712;28;20441;-91
2023/06/06 05:51:28;;;;;;;11.10;10.00;;;18.30;99.90;;;;;;5068157;28;20584;-92
2023/06/06 05:56:33;;;;;;;10.90;10.10;;;19.10;99.90;;;;;;4998205;28;20475;-83
2023/06/06 05:58:59;;;;;;;22.00;11.07;;;19.10;99.90;;;;;;5059451;22;20891;-89
2023/06/06 06:01:24;;;;;;;12.77;11.47;;;19.30;99.90;;;;;;5052877;28;20433;-88
2023/06/06 06:03:52;;;;;;;10.70;9.83;;;19.40;99.90;;;;;;5046548;28;20256;-90
2023/06/06 06:06:19;;;;;;;12.97;11.43;;;19.10;99.90;;;;;;5039150;28;20194;-90
2023/06/06 06:08:48;;;;;;;14.27;13.10;;;19.60;99.90;;;;;;5056318;28;20972;-89
2023/06/06 06:11:14;;;;;;;12.20;10.90;;;20.10;99.90;;;;;;5045803;28;20420;-89
2023/06/06 06:13:39;;;;;;;12.23;11.17;;;20.30;99.90;;;;;;5048533;28;20489;-89
2023/06/06 06:16:05;;;;;;;11.67;10.70;;;20.20;99.90;;;;;;5053411;28;20433;-88
2023/06/06 06:18:31;;;;;;;12.60;11.33;;;20.40;99.90;;;;;;5047154;28;20195;-88
2023/06/06 06:20:57;;;;;;;11.03;10.23;;;20.30;99.90;;;;;;5025582;28;20187;-90
2023/06/06 06:23:22;;;;;;;13.67;9.97;;;20.70;99.90;;;;;;5029751;28;20445;-89
2023/06/06 06:25:48;;;;;;;11.93;10.73;;;20.90;99.90;;;;;;5054663;28;20203;-89
2023/06/06 06:28:21;;;;;;;12.33;11.07;;;21.20;99.60;;;;;;5034613;28;20198;-89
2023/06/06 06:30:48;;;;;;;12.17;11.17;;;21.50;99.30;;;;;;5052972;28;20199;-90
2023/06/06 06:33:14;;;;;;;10.63;9.50;;;21.70;98.70;;;;;;5031804;28;21001;-89
2023/06/06 06:35:41;;;;;;;11.57;10.47;;;22.00;97.70;;;;;;5031470;28;20455;-89
2023/06/06 06:38:07;;;;;;;11.97;10.87;;;22.60;96.40;;;;;;5034750;28;20449;-89
2023/06/06 06:40:32;;;;;;;13.70;9.97;;;22.90;94.40;;;;;;5051506;28;20797;-89
2023/06/06 06:43:00;;;;;;;12.10;11.10;;;23.10;93.90;;;;;;5049922;28;20711;-87
2023/06/06 06:45:26;;;;;;;11.83;10.60;;;23.40;93.00;;;;;;5037660;28;20646;-90
2023/06/06 06:47:52;;;;;;;11.57;10.37;;;23.20;92.50;;;;;;5035263;28;20960;-88
2023/06/06 06:50:18;;;;;;;13.40;11.53;;;23.50;91.90;;;;;;5033965;28;20440;-89
2023/06/06 06:52:43;;;;;;;12.03;10.60;;;23.80;90.70;;;;;;5050440;28;20211;-89
2023/06/06 06:55:10;;;;;;;11.47;10.47;;;23.00;91.30;;;;;;5055394;28;20182;-91
2023/06/06 06:57:38;;;;;;;11.67;10.83;;;22.90;91.90;;;;;;5032021;28;20596;-87
2023/06/06 07:00:12;;;;;;;12.27;11.03;;;23.00;91.50;;;;;;5051465;28;20429;-88
2023/06/06 07:02:47;;;;;;;11.30;10.23;;;23.40;91.30;;;;;;5031780;28;20477;-89
2023/06/06 07:05:34;;;;;;;11.90;10.80;;;23.40;90.80;;;;;;5037041;28;20421;-92
2023/06/06 07:07:59;;;;;;;12.13;11.23;;;23.30;89.90;;;;;;5067965;28;20417;-92
2023/06/06 07:10:32;;;;;;;11.90;10.73;;;23.20;90.00;;;;;;5052537;28;20438;-90
2023/06/06 07:13:43;;;;;;;;;;;;;;;;;;;;;
2023/06/06 07:16:12;;;;;;;13.57;11.43;;;23.10;90.60;;;;;;5047772;28;20469;-91
2023/06/06 07:18:40;;;;;;;12.77;11.67;;;22.80;90.60;;;;;;5046194;28;20757;-91
2023/06/06 07:21:13;;;;;;;13.43;11.87;;;22.70;91.10;;;;;;5057693;28;20434;-91
2023/06/06 07:23:39;;;;;;;12.87;11.60;;;23.40;90.70;;;;;;5041876;28;20438;-92
2023/06/06 07:26:06;;;;;;;11.80;10.70;;;23.80;89.20;;;;;;5038598;28;20429;-92
2023/06/06 07:28:33;;;;;;;12.33;10.97;;;24.60;87.20;;;;;;5034798;28;20428;-92
2023/06/06 07:31:02;;;;;;;11.83;10.83;;;23.70;85.90;;;;;;5053762;28;21023;-90
2023/06/06 07:33:28;;;;;;;11.90;11.10;;;24.60;85.20;;;;;;5054002;28;20463;-90
2023/06/06 07:35:56;;;;;;;11.33;10.50;;;24.80;83.20;;;;;;5039945;28;20937;-90
2023/06/06 07:38:21;;;;;;;12.57;11.17;;;25.20;80.70;;;;;;5037978;28;20191;-89
2023/06/06 07:40:47;;;;;;;12.53;11.60;;;25.20;79.80;;;;;;5039213;28;20854;-89
2023/06/06 07:43:15;;;;;;;11.40;10.50;;;;;;;;;;5037584;28;20263;-88
2023/06/06 07:45:40;;;;;;;10.90;9.93;;;26.00;75.50;;;;;;5037436;28;20275;-92
2023/06/06 07:48:06;;;;;;;12.10;11.07;;;26.40;73.40;;;;;;5059277;28;20480;-90
2023/06/06 07:50:32;;;;;;;10.70;9.80;;;26.10;73.10;;;;;;5049813;28;20221;-93
2023/06/06 07:52:58;;;;;;;12.40;11.20;;;25.90;73.50;;;;;;5060769;23;20481;-91
2023/06/06 07:55:24;;;;;;;11.37;10.23;;;26.30;72.10;;;;;;5067005;28;20524;-91
2023/06/06 07:57:51;;;;;;;11.67;10.50;;;26.80;69.90;;;;;;5052077;28;20812;-92
2023/06/06 08:00:51;;;;;;;11.50;10.57;;;26.60;68.10;;;;;;5069458;28;20427;-94
2023/06/06 08:03:17;;;;;;;11.60;10.50;;;27.00;67.40;;;;;;5055002;23;20512;-83
2023/06/06 08:05:42;;;;;;;10.77;9.83;;;26.50;66.80;;;;;;5029630;28;21383;-82
2023/06/06 08:08:08;;;;;;;10.00;9.20;;;27.10;66.40;;;;;;5024753;28;20215;-83
2023/06/06 08:10:34;;;;;;;10.57;9.60;;;28.00;64.80;;;;;;5030772;28;20231;-82
2023/06/06 08:13:00;;;;;;;10.87;10.13;;;27.90;62.40;;;;;;5026686;28;20220;-82
2023/06/06 08:15:26;;;;;;;14.03;9.40;;;28.30;61.20;;;;;;5006480;28;20187;-82
2023/06/06 08:17:52;;;;;;;11.43;10.63;;;28.80;59.50;;;;;;5031290;28;20904;-82
2023/06/06 08:20:17;;;;;;;11.20;10.03;;;28.40;58.70;;;;;;5026678;28;20195;-81
2023/06/06 08:22:52;;;;;;;11.77;10.73;;;28.20;59.20;;;;;;5025820;28;20196;-79
2023/06/06 08:25:18;;;;;;;10.13;9.43;;;27.30;59.70;;;;;;5029837;28;20203;-82
2023/06/06 08:27:44;;;;;;;11.33;10.20;;;27.30;60.90;;;;;;5032953;28;20441;-83
2023/06/06 08:30:10;;;;;;;11.10;10.00;;;27.00;61.00;;;;;;5024576;28;21004;-85
2023/06/06 08:32:37;;;;;;;9.70;8.80;;;27.20;61.40;;;;;;5010559;28;20231;-82
2023/06/06 08:35:03;;;;;;;10.20;9.40;;;28.40;58.90;;;;;;5023997;28;20458;-83
2023/06/06 08:37:30;;;;;;;10.23;9.43;;;28.00;59.00;;;;;;5023746;28;20679;-84
2023/06/06 08:39:57;;;;;;;10.77;9.90;;;28.30;58.70;;;;;;5009049;28;21039;-80
2023/06/06 08:42:24;;;;;;;11.83;10.30;;;27.90;58.30;;;;;;5006467;28;20430;-82
2023/06/06 08:44:52;;;;;;;9.67;8.80;;;27.00;60.10;;;;;;5024189;28;20430;-81
2023/06/06 08:47:23;;;;;;;10.27;9.47;;;27.80;59.20;;;;;;5025311;28;20637;-82
2023/06/06 08:49:49;;;;;;;13.23;10.63;;;27.40;59.30;;;;;;5011455;28;20446;-81
2023/06/06 08:52:16;;;;;;;9.80;8.93;;;27.30;59.60;;;;;;5010385;28;20506;-84
2023/06/06 08:54:45;;;;;;;10.43;9.47;;;27.70;59.80;;;;;;5011979;28;21210;-83
2023/06/06 08:57:15;;;;;;;9.70;9.10;;;27.40;59.30;;;;;;5004446;28;20460;-83
2023/06/06 08:59:41;;;;;;;9.40;8.80;;;28.40;58.10;;;;;;5008006;28;20449;-80
2023/06/06 09:02:07;;;;;;;11.30;10.13;;;29.60;56.90;;;;;;5004016;28;20460;-84
2023/06/06 09:04:34;;;;;;;10.60;9.90;;;30.10;56.10;;;;;;5002106;28;20482;-83
2023/06/06 09:07:05;;;;;;;9.40;8.60;;;30.70;55.20;;;;;;5007653;28;20539;-84
2023/06/06 09:09:36;;;;;;;8.70;8.20;;;30.90;53.90;;;;;;5008395;28;20451;-81
2023/06/06 09:12:02;;;;;;;10.20;9.27;;;31.00;53.20;;;;;;5006835;28;20456;-83
2023/06/06 09:14:28;;;;;;;8.53;8.03;;;30.10;52.90;;;;;;5013769;28;20446;-82
2023/06/06 09:16:53;;;;;;;10.33;9.43;;;29.30;53.80;;;;;;5008965;28;20184;-83
2023/06/06 09:19:26;;;;;;;9.63;8.80;;;29.10;54.00;;;;;;5022497;28;20181;-83
2023/06/06 09:21:52;;;;;;;10.40;9.50;;;29.60;53.70;;;;;;5026857;28;20189;-82
2023/06/06 09:24:18;;;;;;;9.30;8.40;;;29.10;54.40;;;;;;5017878;28;20435;-83
2023/06/06 09:26:46;;;;;;;10.77;9.67;;;30.00;53.90;;;;;;5013566;28;20467;-82
2023/06/06 09:29:12;;;;;;;10.17;8.77;;;30.80;52.70;;;;;;5006178;28;20455;-81
2023/06/06 09:31:42;;;;;;;9.63;8.93;;;30.90;52.20;;;;;;5004079;28;20201;-82
2023/06/06 09:34:09;;;;;;;8.60;7.90;;;30.30;52.70;;;;;;4991434;28;20207;-81
2023/06/06 09:36:36;;;;;;;9.63;8.80;;;30.20;52.70;;;;;;4984869;28;20847;-82
2023/06/06 09:39:09;;;;;;;9.87;8.90;;;30.30;52.50;;;;;;5001808;28;20428;-82
2023/06/06 09:41:48;;;;;;;9.53;8.77;;;30.60;51.60;;;;;;5002589;28;20658;-82
2023/06/06 09:44:22;;;;;;;8.70;8.20;;;31.00;51.40;;;;;;5003138;28;20439;-82
2023/06/06 09:46:59;;;;;;;9.47;8.83;;;32.00;51.10;;;;;;4982763;28;20771;-80
2023/06/06 09:49:24;;;;;;;9.13;8.43;;;30.80;50.60;;;;;;4986165;28;20443;-81
2023/06/06 09:51:53;;;;;;;9.87;7.40;;;30.90;51.10;;;;;;4999238;28;21029;-80
2023/06/06 09:54:24;;;;;;;10.30;9.50;;;30.80;51.00;;;;;;5005145;28;20208;-82
2023/06/06 09:56:51;;;;;;;9.93;8.10;;;30.00;51.10;;;;;;5004004;28;20434;-81
2023/06/06 09:59:19;;;;;;;9.40;8.70;;;30.50;51.50;;;;;;5004650;28;20784;-82
2023/06/06 10:01:47;;;;;;;8.20;7.70;;;;;;;;;;5003830;28;20522;-83
2023/06/06 10:04:14;;;;;;;7.57;7.07;;;;;;;;;;5007897;28;20479;-82
2023/06/06 10:06:46;;;;;;;10.83;9.93;;;;;;;;;;5003284;28;20861;-83
2023/06/06 10:09:13;;;;;;;8.57;7.87;;;;;;;;;;5004299;28;20450;-82
2023/06/06 10:11:39;;;;;;;9.73;7.03;;;;;;;;;;5006603;28;20985;-81
2023/06/06 10:14:08;;;;;;;8.20;7.80;;;;;;;;;;5011390;28;20964;-88
2023/06/06 10:16:35;;;;;;;8.23;7.60;;;;;;;;;;5013346;28;20518;-85
2023/06/06 10:19:01;;;;;;;8.60;7.67;;;;;;;;;;5024787;28;20407;-85
2023/06/06 10:21:28;;;;;;;8.07;7.27;;;;;;;;;;5025052;28;20431;-85
2023/06/06 10:23:55;;;;;;;7.67;6.93;;;;;;;;;;5007227;28;20527;-83
2023/06/06 10:26:26;;;;;;;6.97;6.37;;;;;;;;;;5019552;28;20442;-85
2023/06/06 10:29:00;;;;;;;7.73;7.27;;;;;;;;;;5005023;28;20458;-82
2023/06/06 10:31:53;;;;;;;7.70;6.93;;;;;;;;;;5004343;28;20419;-81
2023/06/06 10:34:20;;;;;;;7.30;6.90;;;;;;;;;;4997291;28;20433;-86
2023/06/06 10:36:46;;;;;;;9.27;7.20;;;;;;;;;;5005439;28;20519;-85
2023/06/06 10:39:17;;;;;;;8.32;7.63;;;;;;;;;;5003909;28;20526;-83
2023/06/06 10:41:48;;;;;;;7.87;7.40;;;;;;;;;;5013954;28;20177;-85
2023/06/06 10:44:14;;;;;;;5.80;5.40;;;;;;;;;;5008774;28;20482;-84
2023/06/06 10:46:41;;;;;;;7.53;7.23;;;;;;;;;;5011181;28;20748;-84
2023/06/06 10:49:08;;;;;;;8.40;7.90;;;;;;;;;;5005710;28;20428;-82
2023/06/06 10:51:36;;;;;;;7.90;7.17;;;;;;;;;;5007178;28;20485;-83
2023/06/06 10:54:14;;;;;;;13.10;8.83;;;;;;;;;;5007653;28;20754;-85
2023/06/06 10:56:47;;;;;;;7.33;6.80;;;;;;;;;;5003390;28;20788;-84
2023/06/06 10:59:15;;;;;;;7.63;7.23;;;;;;;;;;5008687;28;20447;-85
2023/06/06 11:01:42;;;;;;;7.53;6.80;;;;;;;;;;5016886;28;20700;-85
2023/06/06 11:04:18;;;;;;;7.97;7.37;;;;;;;;;;5008964;28;20517;-81
2023/06/06 11:06:45;;;;;;;9.97;7.10;;;;;;;;;;4987317;28;20788;-82
2023/06/06 11:09:25;;;;;;;7.63;6.90;;;;;;;;;;5008301;28;20442;-83
2023/06/06 11:12:21;;;;;;;12.67;7.60;;;;;;;;;;5014215;28;20907;-84
2023/06/06 11:14:57;;;;;;;7.00;6.60;;;;;;;;;;5026724;28;20521;-84
2023/06/06 11:17:30;;;;;;;6.60;6.30;;;;;;;;;;5004507;28;20443;-85
2023/06/06 11:19:56;;;;;;;8.47;6.00;;;;;;;;;;5023577;28;20439;-84
2023/06/06 11:22:27;;;;;;;7.23;6.73;;;;;;;;;;5021909;28;20415;-80
2023/06/06 11:24:56;;;;;;;9.97;6.70;;;;;;;;;;5022359;28;20481;-84
2023/06/06 11:27:22;;;;;;;6.60;6.10;;;;;;;;;;5020211;28;20448;-80
2023/06/06 11:29:48;;;;;;;5.93;5.53;;;;;;;;;;5027737;28;20442;-85
2023/06/06 11:32:14;;;;;;;7.80;7.10;;;;;;;;;;5029551;28;20440;-85
2023/06/06 11:34:40;;;;;;;6.03;5.80;;;;;;;;;;5024583;28;20515;-82
2023/06/06 11:37:07;;;;;;;5.57;5.37;;;;;;;;;;5023837;28;20444;-85
2023/06/06 11:39:33;;;;;;;6.40;6.00;;;;;;;;;;5034243;28;20455;-86
2023/06/06 11:42:00;;;;;;;5.77;5.53;;;;;;;;;;5021279;28;20440;-85
2023/06/06 11:44:33;;;;;;;5.03;4.60;;;;;;;;;;5021474;28;20419;-82
2023/06/06 11:47:02;;;;;;;6.17;5.77;;;;;;;;;;5017418;28;20450;-82
2023/06/06 11:49:28;;;;;;;4.97;4.10;;;;;;;;;;4995126;28;20823;-84
2023/06/06 11:51:56;;;;;;;4.30;4.00;;;;;;;;;;4989244;28;20842;-86
2023/06/06 11:54:27;;;;;;;4.00;3.80;;;;;;;;;;5011330;28;20444;-85
2023/06/06 11:56:57;;;;;;;4.47;4.17;;;;;;;;;;5015762;28;20482;-85
2023/06/06 11:59:28;;;;;;;4.60;4.40;;;;;;;;;;5015653;28;20708;-86
2023/06/06 12:01:56;;;;;;;3.87;3.67;;;;;;;;;;5003924;28;20443;-83
2023/06/06 12:04:23;;;;;;;4.17;4.00;;;;;;;;;;5010444;28;20447;-81
2023/06/06 12:06:53;;;;;;;4.17;3.97;;;;;;;;;;5008379;28;20444;-84
2023/06/06 12:09:20;;;;;;;4.30;4.10;;;;;;;;;;4997817;28;20443;-79
2023/06/06 12:12:12;;;;;;;4.53;4.30;;;35.50;36.10;;;;;;5007904;28;20729;-80
2023/06/06 12:14:38;;;;;;;6.63;6.23;;;35.30;36.30;;;;;;5009660;28;20466;-81
2023/06/06 12:17:05;;;;;;;7.13;4.40;;;34.60;37.20;;;;;;5008746;28;20455;-77
2023/06/06 12:19:32;;;;;;;4.10;3.90;;;35.50;36.90;;;;;;5006221;28;20176;-79
2023/06/06 12:21:58;;;;;;;4.57;4.40;;;36.50;36.60;;;;;;4985611;28;20776;-81
2023/06/06 12:24:37;;;;;;;4.10;3.90;;;37.40;36.20;;;;;;5013672;28;20482;-84
2023/06/06 12:27:11;;;;;;;4.27;4.17;;;37.80;35.60;;;;;;5009264;28;20485;-78
2023/06/06 12:29:50;;;;;;;4.80;4.40;;;37.30;34.90;;;;;;5009903;28;20424;-87
2023/06/06 12:32:21;;;;;;;4.43;4.20;;;36.50;35.40;;;;;;4997361;28;20470;-83
2023/06/06 12:35:02;;;;;;;4.90;4.60;;;36.00;35.90;;;;;;5021732;28;20970;-84
2023/06/06 12:41:06;;;;;;;4.23;4.03;;;35.60;35.70;;;;;;5015098;28;20427;-84
2023/06/06 12:43:43;;;;;;;5.50;5.30;;;35.70;35.70;;;;;;5025166;28;20430;-85
2023/06/06 12:46:09;;;;;;;4.80;4.20;;;36.10;35.50;;;;;;5013722;28;20445;-83
2023/06/06 12:48:43;;;;;;;4.47;4.30;;;35.10;35.60;;;;;;4999348;28;20866;-84
2023/06/06 12:51:12;;;;;;;4.23;4.03;;;34.90;35.80;;;;;;4985850;28;20541;-78
2023/06/06 12:53:46;;;;;;;5.17;4.80;;;35.10;35.80;;;;;;4988083;28;20977;-77
2023/06/06 12:56:18;;;;;;;5.30;4.97;;;35.50;36.20;;;;;;5009514;28;20418;-83
2023/06/06 12:58:45;;;;;;;5.40;4.90;;;35.70;36.30;;;;;;4988589;28;20459;-88
2023/06/06 13:01:11;;;;;;;4.70;4.40;;;35.90;36.10;;;;;;5007801;28;20432;-85
2023/06/06 13:03:37;;;;;;;4.77;4.47;;;36.20;35.40;;;;;;5004899;28;20464;-84
2023/06/06 13:06:03;;;;;;;5.50;5.03;;;35.80;35.10;;;;;;4993817;28;20748;-86
2023/06/06 13:08:34;;;;;;;10.90;10.10;;;34.20;36.20;;;;;;4984511;28;20453;-86
2023/06/06 13:11:00;;;;;;;5.00;4.73;;;35.10;36.50;;;;;;4984706;28;20471;-82
2023/06/06 13:13:32;;;;;;;6.60;5.50;;;35.20;36.30;;;;;;4980707;28;20271;-86
2023/06/06 13:15:59;;;;;;;7.60;5.30;;;33.60;36.30;;;;;;5001902;28;20428;-84
2023/06/06 13:18:26;;;;;;;6.27;5.97;;;33.00;36.90;;;;;;4988827;28;20435;-89